Time;durP1;ratioP1;P1;durP2;ratioP2;P2;SDS_P1;SDS_P2;PMS_P1;PMS_P2;Temp;Humidity;BMP_temperature;BMP_pressure;BME280_temperature;BME280_humidity;BME280_pressure;Samples;Min_cycle;Max_cycle;Signal;HPM_P1;HPM_P2
2022/04/09 00:00:10;;;;;;;9.48;0.95;;;;;;;;;;5101715;28;20386;-60
2022/04/09 00:02:36;;;;;;;11.00;0.63;;;;;;;;;;5097298;28;20627;-60
2022/04/09 00:05:03;;;;;;;8.75;0.80;;;;;;;;;;5104040;28;20040;-61
2022/04/09 00:07:29;;;;;;;12.73;1.02;;;;;;;;;;5098629;28;20040;-61
2022/04/09 00:09:55;;;;;;;12.27;0.98;;;;;;;;;;5099282;28;20047;-61
2022/04/09 00:12:21;;;;;;;13.27;0.70;;;;;;;;;;5099990;28;20040;-61
2022/04/09 00:14:47;;;;;;;14.93;1.20;;;;;;;;;;5100452;28;20132;-61
2022/04/09 00:17:13;;;;;;;12.85;1.05;;;;;;;;;;5095774;28;20035;-61
2022/04/09 00:19:39;;;;;;;14.13;1.25;;;;;;;;;;5096955;28;20052;-61
2022/04/09 00:22:05;;;;;;;12.35;1.30;;;;;;;;;;5094204;28;20050;-62
2022/04/09 00:24:31;;;;;;;12.38;1.55;;;;;;;;;;5093860;28;20162;-61
2022/04/09 00:26:57;;;;;;;16.92;1.33;;;;;;;;;;5098536;28;20051;-61
2022/04/09 00:29:23;;;;;;;18.77;1.45;;;;;;;;;;5097593;28;20138;-61
2022/04/09 00:31:49;;;;;;;19.80;1.55;;;;;;;;;;5103525;28;20073;-61
2022/04/09 00:34:15;;;;;;;15.57;1.40;;;;;;;;;;5102379;28;20050;-61
2022/04/09 00:36:41;;;;;;;13.00;1.33;;;;;;;;;;5079979;28;20055;-62
2022/04/09 00:39:07;;;;;;;6.47;0.68;;;;;;;;;;5105427;28;20128;-62
2022/04/09 00:41:33;;;;;;;6.82;0.40;;;;;;;;;;5097985;28;20501;-62
2022/04/09 00:43:59;;;;;;;9.27;1.05;;;;;;;;;;5099966;28;20120;-61
2022/04/09 00:46:25;;;;;;;8.18;0.38;;;;;;;;;;5096830;28;20043;-62
2022/04/09 00:48:52;;;;;;;8.30;0.47;;;;;;;;;;5099449;28;20031;-62
2022/04/09 00:51:18;;;;;;;5.95;0.30;;;;;;;;;;5097779;28;20068;-62
2022/04/09 00:53:47;;;;;;;7.72;0.40;;;;;;;;;;5076479;28;20036;-62
2022/04/09 00:56:16;;;;;;;7.95;0.50;;;;;;;;;;5096195;28;20055;-63
2022/04/09 00:58:48;;;;;;;7.97;0.45;;;;;;;;;;5123561;27;20044;-61
2022/04/09 01:01:15;;;;;;;10.80;0.68;;;;;;;;;;5096359;28;20043;-62
2022/04/09 01:03:41;;;;;;;12.43;0.95;;;;;;;;;;5100183;28;20039;-61
2022/04/09 01:06:09;;;;;;;12.25;0.77;;;;;;;;;;5100936;28;20048;-62
2022/04/09 01:08:35;;;;;;;10.40;0.63;;;;;;;;;;5093725;28;20071;-62
2022/04/09 01:11:01;;;;;;;12.05;1.13;;;;;;;;;;5078515;28;20188;-62
2022/04/09 01:13:27;;;;;;;7.03;0.47;;;;;;;;;;5121738;27;20044;-61
2022/04/09 01:15:53;;;;;;;9.57;0.80;;;;;;;;;;5100572;28;20045;-62
2022/04/09 01:18:20;;;;;;;6.85;0.68;;;;;;;;;;5100421;28;20051;-61
2022/04/09 01:20:46;;;;;;;10.50;0.68;;;;;;;;;;5096935;28;20445;-64
2022/04/09 01:23:12;;;;;;;17.45;1.20;;;;;;;;;;5096299;28;20154;-62
2022/04/09 01:25:39;;;;;;;10.80;0.90;;;;;;;;;;5074162;28;20050;-62
2022/04/09 01:28:05;;;;;;;6.93;0.60;;;;;;;;;;5098881;28;20047;-62
2022/04/09 01:30:31;;;;;;;14.32;0.60;;;;;;;;;;5101300;28;20051;-61
2022/04/09 01:32:57;;;;;;;11.88;1.75;;;;;;;;;;5095520;28;20040;-61
2022/04/09 01:35:23;;;;;;;10.23;0.40;;;;;;;;;;5096712;28;20031;-61
2022/04/09 01:37:49;;;;;;;4.90;0.40;;;;;;;;;;5079162;28;20040;-61
2022/04/09 01:40:15;;;;;;;8.07;0.40;;;;;;;;;;5082529;28;20072;-62
2022/04/09 01:42:41;;;;;;;7.32;0.80;;;;;;;;;;5099104;28;20040;-62
2022/04/09 01:45:09;;;;;;;8.38;0.57;;;;;;;;;;5102302;28;20397;-62
2022/04/09 01:47:40;;;;;;;9.13;0.88;;;;;;;;;;5075765;28;20044;-62
2022/04/09 01:50:08;;;;;;;9.95;0.70;;;;;;;;;;5092639;28;20055;-62
2022/04/09 01:52:34;;;;;;;10.82;0.80;;;;;;;;;;5122893;27;20043;-61
2022/04/09 01:55:00;;;;;;;9.77;0.88;;;;;;;;;;5077083;28;20051;-61
2022/04/09 01:57:26;;;;;;;11.07;1.17;;;;;;;;;;5095560;28;20043;-62
2022/04/09 01:59:52;;;;;;;12.75;0.70;;;;;;;;;;5077078;28;20524;-61
2022/04/09 02:02:18;;;;;;;8.02;0.63;;;;;;;;;;5079293;28;20061;-62
2022/04/09 02:04:44;;;;;;;5.72;0.50;;;;;;;;;;5098966;28;20112;-61
2022/04/09 02:07:10;;;;;;;9.32;0.60;;;;;;;;;;5095317;28;20457;-62
2022/04/09 02:09:37;;;;;;;9.43;0.73;;;;;;;;;;5101311;28;20403;-61
2022/04/09 02:12:03;;;;;;;8.65;0.70;;;;;;;;;;5089352;28;20055;-63
2022/04/09 02:14:29;;;;;;;13.40;0.75;;;;;;;;;;5095223;28;20040;-62
2022/04/09 02:16:56;;;;;;;6.65;0.73;;;;;;;;;;5095399;28;20063;-61
2022/04/09 02:19:22;;;;;;;9.98;1.05;;;;;;;;;;5098278;28;20055;-60
2022/04/09 02:21:48;;;;;;;12.95;0.80;;;;;;;;;;5092109;28;20499;-62
2022/04/09 02:24:14;;;;;;;8.48;0.60;;;;;;;;;;5095115;28;20080;-62
2022/04/09 02:26:40;;;;;;;8.82;1.00;;;;;;;;;;5094934;28;20414;-60
2022/04/09 02:29:06;;;;;;;7.43;0.93;;;;;;;;;;5101100;28;20042;-60
2022/04/09 02:31:32;;;;;;;7.40;0.75;;;;;;;;;;5098906;28;20047;-61
2022/04/09 02:33:58;;;;;;;8.50;0.80;;;;;;;;;;5098488;28;20040;-60
2022/04/09 02:36:24;;;;;;;9.85;0.90;;;;;;;;;;5096001;28;20042;-61
2022/04/09 02:38:50;;;;;;;12.27;0.68;;;;;;;;;;5097955;28;20400;-60
2022/04/09 02:41:16;;;;;;;9.73;0.85;;;;;;;;;;5103589;28;20042;-60
2022/04/09 02:43:45;;;;;;;11.13;0.77;;;;;;;;;;5098962;28;20040;-60
2022/04/09 02:46:11;;;;;;;10.93;0.82;;;;;;;;;;5093026;28;20044;-60
2022/04/09 02:48:37;;;;;;;10.02;1.05;;;;;;;;;;5103532;28;20192;-60
2022/04/09 02:51:04;;;;;;;9.25;0.70;;;;;;;;;;5100917;28;20039;-62
2022/04/09 02:53:30;;;;;;;7.25;0.50;;;;;;;;;;5098195;28;20043;-62
2022/04/09 02:55:56;;;;;;;7.20;0.77;;;;;;;;;;5098178;28;20048;-60
2022/04/09 02:58:22;;;;;;;8.10;0.70;;;;;;;;;;5097366;28;20039;-60
2022/04/09 03:00:48;;;;;;;6.10;0.60;;;;;;;;;;5085217;28;20047;-60
2022/04/09 03:03:14;;;;;;;11.02;0.93;;;;;;;;;;5104643;28;20042;-60
2022/04/09 03:05:40;;;;;;;7.63;0.40;;;;;;;;;;5104901;28;20044;-60
2022/04/09 03:08:06;;;;;;;13.57;0.90;;;;;;;;;;5104190;28;20517;-59
2022/04/09 03:10:32;;;;;;;12.13;0.80;;;;;;;;;;5098293;28;20500;-60
2022/04/09 03:12:58;;;;;;;9.02;0.75;;;;;;;;;;5098726;28;20056;-61
2022/04/09 03:15:26;;;;;;;11.00;0.80;;;;;;;;;;5104407;28;20069;-61
2022/04/09 03:17:52;;;;;;;11.73;1.05;;;;;;;;;;5097172;28;20048;-61
2022/04/09 03:20:18;;;;;;;15.35;0.85;;;;;;;;;;5098473;28;20036;-60
2022/04/09 03:22:48;;;;;;;14.52;1.17;;;;;;;;;;5099133;28;20043;-60
2022/04/09 03:25:14;;;;;;;7.53;0.70;;;;;;;;;;5104213;28;20457;-60
2022/04/09 03:27:40;;;;;;;14.68;1.45;;;;;;;;;;5104435;28;20100;-60
2022/04/09 03:30:08;;;;;;;13.60;1.83;;;;;;;;;;5097956;28;20131;-60
2022/04/09 03:32:36;;;;;;;17.25;1.25;;;;;;;;;;5126276;27;20051;-61
2022/04/09 03:35:02;;;;;;;19.00;1.33;;;;;;;;;;5098835;28;20104;-59
2022/04/09 03:37:28;;;;;;;14.20;1.60;;;;;;;;;;5100520;28;20398;-60
2022/04/09 03:39:54;;;;;;;9.15;1.17;;;;;;;;;;5084930;28;20077;-59
2022/04/09 03:42:20;;;;;;;12.55;1.23;;;;;;;;;;5094724;28;20088;-61
2022/04/09 03:44:47;;;;;;;17.20;1.20;;;;;;;;;;5080192;28;20068;-61
2022/04/09 03:47:13;;;;;;;17.15;1.55;;;;;;;;;;5081908;28;20129;-60
2022/04/09 03:49:39;;;;;;;15.75;1.98;;;;;;;;;;5094724;28;20043;-60
2022/04/09 03:52:05;;;;;;;14.27;1.27;;;;;;;;;;5094748;28;20039;-60
2022/04/09 03:54:34;;;;;;;11.60;1.33;;;;;;;;;;5093396;28;20040;-60
2022/04/09 03:57:00;;;;;;;9.68;0.88;;;;;;;;;;5096235;28;20115;-60
2022/04/09 03:59:26;;;;;;;9.32;1.00;;;;;;;;;;5100291;28;20086;-60
2022/04/09 04:01:52;;;;;;;10.68;0.80;;;;;;;;;;5096969;28;20054;-60
2022/04/09 04:04:18;;;;;;;13.63;1.02;;;;;;;;;;5095919;28;20074;-61
2022/04/09 04:06:44;;;;;;;8.93;0.82;;;;;;;;;;5074962;28;20044;-59
2022/04/09 04:09:12;;;;;;;8.38;0.85;;;;;;;;;;5094189;28;20493;-60
2022/04/09 04:11:39;;;;;;;8.70;0.60;;;;;;;;;;5098640;28;20163;-62
2022/04/09 04:14:05;;;;;;;8.07;0.88;;;;;;;;;;5101130;28;20568;-61
2022/04/09 04:16:31;;;;;;;9.82;0.98;;;;;;;;;;5103246;28;20063;-62
2022/04/09 04:18:57;;;;;;;10.05;0.63;;;;;;;;;;5083928;28;20125;-61
2022/04/09 04:21:23;;;;;;;14.27;0.80;;;;;;;;;;5079446;28;20044;-61
2022/04/09 04:23:49;;;;;;;9.75;1.05;;;;;;;;;;5099911;28;20036;-60
2022/04/09 04:26:15;;;;;;;8.30;0.60;;;;;;;;;;5096787;28;20507;-59
2022/04/09 04:28:41;;;;;;;7.72;0.40;;;;;;;;;;5102247;28;20528;-61
2022/04/09 04:31:07;;;;;;;8.13;1.00;;;;;;;;;;5095047;28;20049;-60
2022/04/09 04:33:34;;;;;;;11.27;0.57;;;;;;;;;;5097743;28;20052;-59
2022/04/09 04:36:00;;;;;;;10.40;0.93;;;;;;;;;;5096483;28;20037;-60
2022/04/09 04:38:27;;;;;;;8.90;0.50;;;;;;;;;;5101234;28;20075;-60
2022/04/09 04:40:55;;;;;;;9.35;0.57;;;;;;;;;;5097679;28;20048;-62
2022/04/09 04:43:21;;;;;;;6.50;0.50;;;;;;;;;;5082715;28;20108;-60
2022/04/09 04:45:47;;;;;;;8.60;0.63;;;;;;;;;;5101997;28;20123;-59
2022/04/09 04:48:13;;;;;;;11.10;1.20;;;;;;;;;;5097536;28;20043;-61
2022/04/09 04:50:39;;;;;;;8.55;0.60;;;;;;;;;;5081959;28;20043;-63
2022/04/09 04:53:05;;;;;;;13.98;0.90;;;;;;;;;;5082720;28;20056;-61
2022/04/09 04:55:31;;;;;;;8.02;0.93;;;;;;;;;;5080631;28;20040;-61
2022/04/09 04:57:57;;;;;;;16.10;0.95;;;;;;;;;;5096442;28;20119;-62
2022/04/09 05:00:24;;;;;;;14.93;1.13;;;;;;;;;;5097139;28;20404;-62
2022/04/09 05:02:53;;;;;;;9.73;0.80;;;;;;;;;;5102870;28;20035;-61
2022/04/09 05:05:19;;;;;;;11.73;0.95;;;;;;;;;;5098244;28;20104;-62
2022/04/09 05:07:47;;;;;;;9.95;1.10;;;;;;;;;;5096252;28;20127;-60
2022/04/09 05:10:17;;;;;;;12.63;1.10;;;;;;;;;;5100387;28;20039;-60
2022/04/09 05:12:43;;;;;;;8.15;0.70;;;;;;;;;;5096506;28;20070;-60
2022/04/09 05:15:10;;;;;;;12.38;0.70;;;;;;;;;;5096572;28;20050;-62
2022/04/09 05:17:36;;;;;;;12.10;1.00;;;;;;;;;;5101685;28;20035;-61
2022/04/09 05:20:03;;;;;;;11.23;0.65;;;;;;;;;;5097842;28;20243;-62
2022/04/09 05:22:30;;;;;;;9.18;0.95;;;;;;;;;;5096479;28;20036;-61
2022/04/09 05:24:57;;;;;;;12.20;0.85;;;;;;;;;;5091936;28;20046;-61
2022/04/09 05:27:23;;;;;;;11.82;1.02;;;;;;;;;;5098906;28;20044;-61
2022/04/09 05:29:50;;;;;;;8.52;1.00;;;;;;;;;;5095808;28;20040;-61
2022/04/09 05:32:16;;;;;;;11.25;0.95;;;;;;;;;;5093355;28;20847;-60
2022/04/09 05:34:43;;;;;;;8.43;0.90;;;;;;;;;;5092021;28;20036;-61
2022/04/09 05:37:09;;;;;;;13.23;1.42;;;;;;;;;;5094778;28;20093;-61
2022/04/09 05:39:35;;;;;;;12.63;1.30;;;;;;;;;;5094515;28;20119;-61
2022/04/09 05:42:02;;;;;;;14.43;1.52;;;;;;;;;;5079438;28;20046;-62
2022/04/09 05:44:28;;;;;;;13.13;1.40;;;;;;;;;;5081454;28;20044;-60
2022/04/09 05:46:54;;;;;;;12.05;1.00;;;;;;;;;;5100326;28;20055;-61
2022/04/09 05:49:20;;;;;;;9.25;1.63;;;;;;;;;;5098426;28;20357;-60
2022/04/09 05:51:47;;;;;;;10.68;0.98;;;;;;;;;;5094093;28;20380;-61
2022/04/09 05:54:13;;;;;;;9.18;0.60;;;;;;;;;;5089287;28;20109;-61
2022/04/09 05:56:39;;;;;;;10.68;1.15;;;;;;;;;;5102225;28;20036;-62
2022/04/09 05:59:06;;;;;;;9.60;0.60;;;;;;;;;;5087592;28;20043;-61
2022/04/09 06:01:32;;;;;;;9.00;0.75;;;;;;;;;;5105968;28;20043;-60
2022/04/09 06:03:58;;;;;;;10.88;0.65;;;;;;;;;;5096600;28;20036;-62
2022/04/09 06:06:24;;;;;;;12.00;0.80;;;;;;;;;;5094429;28;20043;-61
2022/04/09 06:08:51;;;;;;;12.25;1.00;;;;;;;;;;5086823;28;20474;-62
2022/04/09 06:11:17;;;;;;;9.88;0.73;;;;;;;;;;5095087;28;20044;-62
2022/04/09 06:13:43;;;;;;;11.60;0.80;;;;;;;;;;5092019;28;20680;-63
2022/04/09 06:16:10;;;;;;;15.63;1.00;;;;;;;;;;5093043;28;20473;-63
2022/04/09 06:18:38;;;;;;;8.75;1.10;;;;;;;;;;5126722;27;20048;-63
2022/04/09 06:21:06;;;;;;;9.13;0.82;;;;;;;;;;5101445;28;20122;-62
2022/04/09 06:23:32;;;;;;;6.25;0.68;;;;;;;;;;5102478;28;20636;-63
2022/04/09 06:25:58;;;;;;;7.32;0.45;;;;;;;;;;5078559;28;20496;-62
2022/04/09 06:28:25;;;;;;;5.78;0.50;;;;;;;;;;5098404;28;20464;-64
2022/04/09 06:30:51;;;;;;;6.72;0.50;;;;;;;;;;5085581;28;20043;-63
2022/04/09 06:33:17;;;;;;;5.80;0.70;;;;;;;;;;5107170;28;20449;-63
2022/04/09 06:35:43;;;;;;;7.75;0.63;;;;;;;;;;5089657;28;20499;-63
2022/04/09 06:38:09;;;;;;;7.05;0.50;;;;;;;;;;5082503;28;20039;-63
2022/04/09 06:40:35;;;;;;;7.15;0.45;;;;;;;;;;5100201;28;20036;-63
2022/04/09 06:43:02;;;;;;;8.77;0.60;;;;;;;;;;5093798;28;20032;-62
2022/04/09 06:45:28;;;;;;;8.10;0.35;;;;;;;;;;5089140;28;20126;-62
2022/04/09 06:47:54;;;;;;;6.70;0.60;;;;;;;;;;5091225;28;20135;-62
2022/04/09 06:50:21;;;;;;;7.45;0.50;;;;;;;;;;5123200;27;20047;-62
2022/04/09 06:52:47;;;;;;;8.00;0.73;;;;;;;;;;5086687;28;20047;-62
2022/04/09 06:55:13;;;;;;;11.43;0.98;;;;;;;;;;5091372;28;20119;-62
2022/04/09 06:57:41;;;;;;;8.48;0.60;;;;;;;;;;5089621;28;20036;-62
2022/04/09 07:00:09;;;;;;;5.35;0.50;;;;;;;;;;5093450;28;20046;-62
2022/04/09 07:02:35;;;;;;;5.80;0.63;;;;;;;;;;5098334;28;20499;-61
2022/04/09 07:05:01;;;;;;;10.32;0.98;;;;;;;;;;5088433;28;20361;-62
2022/04/09 07:07:27;;;;;;;12.60;0.80;;;;;;;;;;5099177;28;20098;-61
2022/04/09 07:09:56;;;;;;;8.88;0.98;;;;;;;;;;5102547;28;20152;-62
2022/04/09 07:12:22;;;;;;;8.20;0.75;;;;;;;;;;5088591;28;20052;-61
2022/04/09 07:14:49;;;;;;;7.88;0.50;;;;;;;;;;5087274;28;20127;-63
2022/04/09 07:17:21;;;;;;;5.40;0.45;;;;;;;;;;5101205;28;20028;-61
2022/04/09 07:19:47;;;;;;;4.43;0.30;;;;;;;;;;5103707;28;20047;-60
2022/04/09 07:22:13;;;;;;;10.82;1.13;;;;;;;;;;5108454;28;20052;-60
2022/04/09 07:24:40;;;;;;;7.20;0.60;;;;;;;;;;5089326;28;20111;-61
2022/04/09 07:27:06;;;;;;;7.25;0.60;;;;;;;;;;5099403;28;20489;-60
2022/04/09 07:29:33;;;;;;;12.52;1.10;;;;;;;;;;5097838;28;20044;-62
2022/04/09 07:31:59;;;;;;;13.52;1.05;;;;;;;;;;5104846;28;20556;-59
2022/04/09 07:34:25;;;;;;;10.63;1.23;;;;;;;;;;5102790;28;20124;-60
2022/04/09 07:36:53;;;;;;;16.80;1.30;;;;;;;;;;5099483;28;20115;-63
2022/04/09 07:39:19;;;;;;;15.85;1.60;;;;;;;;;;5089216;28;20546;-62
2022/04/09 07:41:45;;;;;;;10.45;1.08;;;;;;;;;;5089487;28;20081;-62
2022/04/09 07:44:11;;;;;;;12.57;1.23;;;;;;;;;;5088584;28;20028;-62
2022/04/09 07:46:37;;;;;;;10.40;0.98;;;;;;;;;;5089663;28;20048;-62
2022/04/09 07:49:03;;;;;;;10.05;1.15;;;;;;;;;;5089343;28;20135;-61
2022/04/09 07:51:29;;;;;;;13.00;0.90;;;;;;;;;;5072321;28;20759;-62
2022/04/09 07:53:56;;;;;;;11.52;0.95;;;;;;;;;;5072076;28;20089;-61
2022/04/09 07:56:22;;;;;;;12.20;1.05;;;;;;;;;;5089081;28;20033;-61
2022/04/09 07:58:48;;;;;;;11.35;0.90;;;;;;;;;;5121941;27;20508;-61
2022/04/09 08:01:14;;;;;;;11.60;1.33;;;;;;;;;;5090300;28;20166;-61
2022/04/09 08:03:40;;;;;;;12.32;1.20;;;;;;;;;;5089547;28;20036;-61
2022/04/09 08:06:06;;;;;;;12.25;0.93;;;;;;;;;;5089672;28;20043;-62
2022/04/09 08:08:33;;;;;;;10.43;1.13;;;;;;;;;;5089809;28;20040;-62
2022/04/09 08:11:00;;;;;;;13.43;1.05;;;;;;;;;;5090842;28;20386;-61
2022/04/09 08:13:26;;;;;;;13.70;1.30;;;;;;;;;;5088531;28;20240;-61
2022/04/09 08:15:52;;;;;;;10.70;1.45;;;;;;;;;;5091045;28;20079;-61
2022/04/09 08:18:19;;;;;;;12.90;1.25;;;;;;;;;;5100963;28;20050;-62
2022/04/09 08:20:45;;;;;;;5.13;0.80;;;;;;;;;;5093693;28;20085;-62
2022/04/09 08:23:11;;;;;;;10.95;1.23;;;;;;;;;;5110427;28;20404;-61
2022/04/09 08:25:37;;;;;;;11.48;1.17;;;;;;;;;;5107298;28;20050;-61
2022/04/09 08:28:03;;;;;;;9.65;1.13;;;;;;;;;;5091356;28;20043;-62
2022/04/09 08:30:29;;;;;;;10.75;0.77;;;;;;;;;;5090576;28;20043;-62
2022/04/09 08:32:57;;;;;;;6.68;0.47;;;;;;;;;;5090920;28;20046;-61
2022/04/09 08:35:23;;;;;;;7.28;0.65;;;;;;;;;;5105919;28;21319;-61
2022/04/09 08:37:56;;;;;;;7.65;0.70;;;;;;;;;;5106668;28;20103;-62
2022/04/09 08:40:23;;;;;;;5.53;0.70;;;;;;;;;;5109399;28;20050;-60
2022/04/09 08:42:49;;;;;;;7.80;0.60;;;;;;;;;;5109417;28;20412;-62
2022/04/09 08:45:16;;;;;;;6.55;0.40;;;;;;;;;;5109059;28;20040;-61
2022/04/09 08:47:43;;;;;;;10.93;0.75;;;;;;;;;;5109678;28;20400;-62
2022/04/09 08:50:12;;;;;;;7.68;0.40;;;;;;;;;;5100586;28;20385;-61
2022/04/09 08:52:40;;;;;;;5.40;0.30;;;;;;;;;;5105345;28;20044;-63
2022/04/09 08:55:09;;;;;;;8.10;0.68;;;;;;;;;;5100713;28;20036;-62
2022/04/09 08:57:48;;;;;;;5.65;0.60;;;;;;;;;;5102610;28;20127;-61
2022/04/09 09:00:24;;;;;;;4.38;0.40;;;;;;;;;;5105455;28;20450;-62
2022/04/09 09:03:05;;;;;;;3.38;0.20;;;;;;;;;;5099780;28;20050;-64
2022/04/09 09:05:33;;;;;;;11.80;0.68;;;;;;;;;;5135921;27;20047;-62
2022/04/09 09:07:59;;;;;;;12.00;0.80;;;;;;;;;;5110545;28;20122;-61
2022/04/09 09:10:25;;;;;;;9.10;0.70;;;;;;;;;;5103942;28;20039;-62
2022/04/09 09:13:05;;;;;;;6.55;0.75;;;;;;;;;;5108927;28;20400;-62
2022/04/09 09:15:44;;;;;;;6.30;0.40;;;;;;;;;;5101090;28;20043;-62
2022/04/09 09:18:17;;;;;;;5.90;0.30;;;;;;;;;;5099140;28;20065;-63
2022/04/09 09:20:51;;;;;;;3.53;0.28;;;;;;;;;;5072211;28;20051;-63
2022/04/09 09:23:21;;;;;;;4.13;0.20;;;;;;;;;;5090943;28;20024;-61
2022/04/09 09:25:51;;;;;;;4.32;0.40;;;;;;;;;;5090337;28;20079;-62
2022/04/09 09:28:24;;;;;;;8.52;0.65;;;;;;;;;;5089317;28;20458;-61
2022/04/09 09:30:52;;;;;;;5.50;0.40;;;;;;;;;;5088249;28;20532;-63
2022/04/09 09:33:18;;;;;;;5.68;0.50;;;;;;;;;;5088696;28;20127;-62
2022/04/09 09:36:05;;;;;;;5.35;0.50;;;;;;;;;;5087982;28;20040;-62
2022/04/09 09:38:33;;;;;;;7.13;0.60;;;;;;;;;;5085501;28;20362;-62
2022/04/09 09:41:01;;;;;;;6.97;0.40;;;;;;;;;;5088087;28;20510;-62
2022/04/09 09:43:28;;;;;;;7.22;0.73;;;;;;;;;;5086158;28;20067;-62
2022/04/09 09:45:54;;;;;;;10.68;0.73;;;;;;;;;;5071669;28;20048;-62
2022/04/09 09:48:21;;;;;;;10.57;0.82;;;;;;;;;;5088636;28;20048;-62
2022/04/09 09:50:47;;;;;;;11.93;1.17;;;;;;;;;;5088736;28;20083;-63
2022/04/09 09:53:14;;;;;;;13.13;1.48;;;;;;;;;;5086724;28;20044;-62
2022/04/09 09:55:46;;;;;;;9.75;0.98;;;;;;;;;;5086109;28;20048;-63
2022/04/09 09:58:16;;;;;;;14.13;1.42;;;;;;;;;;5069614;28;20028;-62
2022/04/09 10:00:43;;;;;;;9.13;0.85;;;;;;;;;;5090835;28;20123;-62
2022/04/09 10:03:13;;;;;;;13.52;0.90;;;;;;;;;;5075056;28;20043;-62
2022/04/09 10:05:39;;;;;;;9.13;0.85;;;;;;;;;;5120451;27;20044;-62
2022/04/09 10:08:09;;;;;;;8.60;0.93;;;;;;;;;;5075686;28;20044;-64
2022/04/09 10:10:36;;;;;;;12.70;1.90;;;;;;;;;;5097256;28;20040;-62
2022/04/09 10:13:04;;;;;;;12.70;1.55;;;;;;;;;;5090503;28;20048;-62
2022/04/09 10:15:31;;;;;;;11.00;0.88;;;;;;;;;;5094386;28;20043;-62
2022/04/09 10:17:58;;;;;;;12.35;1.15;;;;;;;;;;5097129;28;20060;-62
2022/04/09 10:20:25;;;;;;;13.65;1.20;;;;;;;;;;5095453;28;20044;-62
2022/04/09 10:22:53;;;;;;;11.07;0.73;;;;;;;;;;5102443;28;20046;-62
2022/04/09 10:25:20;;;;;;;5.40;0.30;;;;;;;;;;5094923;28;20111;-62
2022/04/09 10:27:53;;;;;;;3.33;0.20;;;;;;;;;;5087109;28;20048;-60
2022/04/09 10:30:24;;;;;;;11.07;1.05;;;;;;;;;;5078945;28;20505;-62
2022/04/09 10:32:53;;;;;;;9.07;0.63;;;;;;;;;;5120686;27;20048;-62
2022/04/09 10:35:37;;;;;;;3.13;0.10;;;;;;;;;;5089682;28;20510;-63
2022/04/09 10:38:09;;;;;;;3.85;0.30;;;;;;;;;;5089903;28;20125;-64
2022/04/09 10:40:55;;;;;;;3.67;0.30;;;;;;;;;;5086018;28;20031;-63
2022/04/09 10:43:22;;;;;;;5.07;0.35;;;;;;;;;;5090409;28;20544;-65
2022/04/09 10:46:17;;;;;;;2.25;0.20;;;;;;;;;;5092804;28;20047;-63
2022/04/09 10:48:44;;;;;;;1.65;0.10;;;;;;;;;;5121533;27;20155;-63
2022/04/09 10:51:14;;;;;;;1.85;0.10;;;;;;;;;;5087325;28;20049;-63
2022/04/09 10:53:41;;;;;;;2.53;0.20;;;;;;;;;;5104958;28;20516;-63
2022/04/09 10:59:18;;;;;;;1.40;0.10;;;;;;;;;;5057988;28;20055;-62
2022/04/09 11:01:51;;;;;;;2.88;0.30;;;;;;;;;;5093223;28;20036;-62
2022/04/09 11:04:26;;;;;;;2.97;0.30;;;;;;;;;;5092074;28;20031;-62
2022/04/09 11:07:08;;;;;;;5.18;0.40;;;;;;;;;;5091219;28;20494;-62
2022/04/09 11:10:03;;;;;;;5.22;0.40;;;;;;;;;;5099679;28;20040;-63
2022/04/09 11:12:39;;;;;;;3.50;0.25;;;;;;;;;;5105784;27;20047;-63
2022/04/09 11:15:09;;;;;;;7.80;0.80;;;;;;;;;;5075852;28;20036;-62
2022/04/09 11:17:36;;;;;;;7.50;0.50;;;;;;;;;;5099004;28;20309;-62
2022/04/09 11:20:10;;;;;;;8.95;0.90;;;;;;;;;;5098821;28;20143;-61
2022/04/09 11:22:40;;;;;;;10.20;0.98;;;;;;;;;;5099573;28;20051;-62
2022/04/09 11:25:07;;;;;;;6.00;0.50;;;;;;;;;;5082289;28;20086;-60
2022/04/09 11:27:33;;;;;;;7.68;0.68;;;;;;;;;;5097709;28;20047;-61
2022/04/09 11:30:00;;;;;;;7.30;0.50;;;;;;;;;;5101434;28;20343;-62
2022/04/09 11:32:26;;;;;;;8.63;0.88;;;;;;;;;;5098382;28;20036;-62
2022/04/09 11:34:54;;;;;;;7.97;0.60;;;;;;;;;;5075871;28;20417;-61
2022/04/09 11:37:21;;;;;;;8.45;0.75;;;;;;;;;;5080109;28;20035;-60
2022/04/09 11:39:48;;;;;;;9.30;1.10;;;;;;;;;;5097823;28;20146;-62
2022/04/09 11:42:14;;;;;;;7.57;0.98;;;;;;;;;;5107181;28;20124;-61
2022/04/09 11:44:41;;;;;;;12.18;0.93;;;;;;;;;;5107386;28;20035;-61
2022/04/09 11:47:17;;;;;;;11.43;1.00;;;;;;;;;;5109834;28;20071;-60
2022/04/09 11:49:48;;;;;;;9.93;1.17;;;;;;;;;;5109286;28;20051;-61
2022/04/09 11:52:24;;;;;;;11.82;1.30;;;;;;;;;;5111097;28;20044;-61
2022/04/09 11:54:51;;;;;;;9.80;1.25;;;;;;;;;;5106912;28;20389;-61
2022/04/09 11:57:17;;;;;;;12.05;1.10;;;;;;;;;;5108838;28;20074;-61
2022/04/09 11:59:50;;;;;;;14.55;1.98;;;;;;;;;;5109961;28;20103;-62
2022/04/09 12:02:21;;;;;;;11.43;1.40;;;;;;;;;;5109002;28;20140;-61
2022/04/09 12:04:47;;;;;;;10.48;1.08;;;;;;;;;;5131519;27;20054;-62
2022/04/09 12:07:14;;;;;;;5.97;0.70;;;;;;;;;;5110671;28;20039;-62
2022/04/09 12:09:40;;;;;;;7.65;1.05;;;;;;;;;;5105857;28;20080;-61
2022/04/09 12:12:07;;;;;;;5.60;0.60;;;;;;;;;;5107078;28;20032;-61
2022/04/09 12:14:33;;;;;;;8.10;0.80;;;;;;;;;;5103145;28;20374;-61
2022/04/09 12:17:09;;;;;;;9.45;1.10;;;;;;;;;;5109393;28;20127;-61
2022/04/09 12:19:35;;;;;;;10.95;0.90;;;;;;;;;;5094606;28;20052;-63
2022/04/09 12:22:22;;;;;;;13.02;1.38;;;;;;;;;;5090363;28;20091;-62
2022/04/09 12:24:55;;;;;;;13.07;1.70;;;;;;;;;;5091625;28;20565;-61
2022/04/09 12:27:40;;;;;;;16.20;2.17;;;;;;;;;;5089948;28;20093;-62
2022/04/09 12:30:06;;;;;;;15.65;1.73;;;;;;;;;;5091656;28;20456;-63
2022/04/09 12:32:33;;;;;;;11.25;1.50;;;;;;;;;;5091496;28;20081;-61
2022/04/09 12:35:07;;;;;;;10.07;0.68;;;;;;;;;;5091433;28;20125;-63
2022/04/09 12:37:43;;;;;;;8.80;0.70;;;;;;;;;;5090561;28;20036;-61
2022/04/09 12:40:17;;;;;;;5.93;0.55;;;;;;;;;;5098295;28;20032;-62
2022/04/09 12:42:43;;;;;;;9.68;0.77;;;;;;;;;;5097589;28;20062;-62
2022/04/09 12:45:10;;;;;;;7.10;0.40;;;;;;;;;;5104004;28;20069;-61
2022/04/09 12:47:36;;;;;;;6.47;0.50;;;;;;;;;;5096897;28;20434;-61
2022/04/09 12:50:02;;;;;;;5.55;0.77;;;;;;;;;;5099166;28;20334;-60
2022/04/09 12:52:30;;;;;;;9.85;0.63;;;;;;;;;;5078642;28;20040;-61
2022/04/09 12:54:56;;;;;;;8.55;0.43;;;;;;;;;;5067426;28;20120;-61
2022/04/09 12:57:22;;;;;;;6.75;0.65;;;;;;;;;;5090026;28;20071;-61
2022/04/09 12:59:49;;;;;;;11.52;1.05;;;;;;;;;;5089180;28;20102;-62
2022/04/09 13:02:15;;;;;;;13.40;1.20;;;;;;;;;;5089880;28;20502;-62
2022/04/09 13:04:42;;;;;;;11.88;1.38;;;;;;;;;;5091142;28;20109;-62
2022/04/09 13:07:08;;;;;;;10.70;1.00;;;;;;;;;;5108299;28;20036;-61
2022/04/09 13:09:34;;;;;;;8.32;0.80;;;;;;;;;;5093731;28;20461;-61
2022/04/09 13:12:00;;;;;;;7.40;0.50;;;;;;;;;;5108839;28;20512;-63
2022/04/09 13:14:26;;;;;;;8.80;0.88;;;;;;;;;;5088020;28;20050;-60
2022/04/09 13:16:53;;;;;;;5.50;0.55;;;;;;;;;;5109464;28;20409;-61
2022/04/09 13:19:20;;;;;;;8.32;0.80;;;;;;;;;;5107418;28;20116;-61
2022/04/09 13:21:46;;;;;;;7.72;0.73;;;;;;;;;;5107374;28;20065;-61
2022/04/09 13:24:12;;;;;;;7.13;0.50;;;;;;;;;;5108921;28;20262;-61
2022/04/09 13:26:38;;;;;;;6.32;0.45;;;;;;;;;;5108885;28;20060;-62
2022/04/09 13:29:04;;;;;;;2.92;0.32;;;;;;;;;;5107307;28;20069;-61
2022/04/09 13:31:31;;;;;;;9.05;0.60;;;;;;;;;;5107397;28;20035;-61
2022/04/09 13:34:01;;;;;;;8.93;0.77;;;;;;;;;;5105318;28;20054;-61
2022/04/09 13:36:27;;;;;;;14.23;1.05;;;;;;;;;;5102618;28;20040;-62
2022/04/09 13:38:53;;;;;;;9.35;1.05;;;;;;;;;;5106762;28;20130;-61
2022/04/09 13:41:22;;;;;;;12.45;1.20;;;;;;;;;;5104293;28;20042;-61
2022/04/09 13:43:48;;;;;;;8.88;0.80;;;;;;;;;;5100341;28;20044;-61
2022/04/09 13:46:14;;;;;;;6.20;0.75;;;;;;;;;;5086145;28;20408;-61
2022/04/09 13:48:40;;;;;;;8.63;1.02;;;;;;;;;;5108073;28;20071;-61
2022/04/09 13:51:07;;;;;;;12.10;1.45;;;;;;;;;;5107742;28;20389;-59
2022/04/09 13:53:33;;;;;;;13.73;1.08;;;;;;;;;;5107473;28;20052;-61
2022/04/09 13:56:00;;;;;;;6.38;1.10;;;;;;;;;;5100259;28;20035;-61
2022/04/09 13:58:27;;;;;;;7.47;0.70;;;;;;;;;;5107629;28;20039;-60
2022/04/09 14:00:53;;;;;;;8.40;0.85;;;;;;;;;;5090646;28;21349;-60
2022/04/09 14:03:19;;;;;;;7.45;0.75;;;;;;;;;;5097425;28;20126;-59
2022/04/09 14:05:45;;;;;;;7.93;0.60;;;;;;;;;;5109514;28;20053;-60
2022/04/09 14:08:11;;;;;;;10.88;0.75;;;;;;;;;;5091123;28;20055;-60
2022/04/09 14:10:37;;;;;;;10.27;0.80;;;;;;;;;;5108059;28;20152;-60
2022/04/09 14:13:03;;;;;;;10.52;1.02;;;;;;;;;;5099167;28;20506;-61
2022/04/09 14:15:30;;;;;;;9.40;0.90;;;;;;;;;;5089441;28;20055;-60
2022/04/09 14:17:56;;;;;;;6.20;0.63;;;;;;;;;;5090950;28;20036;-60
2022/04/09 14:20:22;;;;;;;8.23;0.75;;;;;;;;;;5089982;28;20094;-61
2022/04/09 14:22:48;;;;;;;6.55;0.57;;;;;;;;;;5089812;28;20042;-60
2022/04/09 14:25:14;;;;;;;8.70;0.77;;;;;;;;;;5089428;28;20119;-60
2022/04/09 14:27:40;;;;;;;13.70;0.90;;;;;;;;;;5073139;28;20547;-60
2022/04/09 14:30:06;;;;;;;13.52;1.35;;;;;;;;;;5090929;28;20460;-60
2022/04/09 14:32:32;;;;;;;9.23;0.93;;;;;;;;;;5089465;28;20043;-61
2022/04/09 14:34:59;;;;;;;14.30;1.30;;;;;;;;;;5090303;28;20569;-60
2022/04/09 14:37:27;;;;;;;13.00;1.42;;;;;;;;;;5088972;28;20040;-61
2022/04/09 14:39:53;;;;;;;7.05;0.63;;;;;;;;;;5088936;28;20123;-61
2022/04/09 14:42:19;;;;;;;5.70;0.63;;;;;;;;;;5090398;28;20043;-61